Time;durP1;ratioP1;P1;durP2;ratioP2;P2;SDS_P1;SDS_P2;PMS_P1;PMS_P2;Temp;Humidity;BMP_temperature;BMP_pressure;BME280_temperature;BME280_humidity;BME280_pressure;Samples;Min_cycle;Max_cycle;Signal;HPM_P1;HPM_P2
2024/01/11 00:00:09;;;;;;;241.80;128.00;;;;;;;-8.01;90.20;101651.80;176672;1259;46090;-80
2024/01/11 00:04:33;;;;;;;244.50;124.60;;;;;;;-7.89;90.71;101647.33;176084;1259;46125;-80
2024/01/11 00:08:36;;;;;;;219.80;111.40;;;;;;;-7.70;90.73;101652.30;176491;1259;46440;-80
2024/01/11 00:12:39;;;;;;;268.20;139.70;;;;;;;-7.70;90.72;101654.70;176388;1259;46031;-80
2024/01/11 00:16:42;;;;;;;281.20;142.90;;;;;;;-7.56;90.58;101647.16;176966;1259;59892;-81
2024/01/11 00:20:45;;;;;;;259.50;131.80;;;;;;;-7.44;90.03;101635.45;176793;1259;46451;-81
2024/01/11 00:24:48;;;;;;;226.50;113.60;;;;;;;-7.47;89.13;101628.85;176558;1258;46117;-81
2024/01/11 00:28:51;;;;;;;217.20;114.30;;;;;;;-7.50;89.09;101633.45;176859;1259;45994;-81
2024/01/11 00:32:55;;;;;;;237.80;124.50;;;;;;;-7.55;88.71;101627.36;176484;1258;46007;-80
2024/01/11 00:36:58;;;;;;;224.60;115.50;;;;;;;-7.52;89.27;101627.58;177164;1258;58626;-80
2024/01/11 00:41:02;;;;;;;235.30;116.00;;;;;;;-7.54;89.12;101631.85;175818;1264;46120;-80
2024/01/11 00:45:05;;;;;;;224.20;122.00;;;;;;;-7.47;89.43;101624.20;175796;1259;46284;-80
2024/01/11 00:49:08;;;;;;;233.70;122.10;;;;;;;-7.41;88.75;101615.15;175865;1259;45990;-79
2024/01/11 00:53:14;;;;;;;245.80;124.80;;;;;;;-7.43;88.84;101607.37;176106;1259;46144;-80
2024/01/11 00:57:17;;;;;;;232.80;115.40;;;;;;;-7.40;88.45;101595.52;176724;1258;58883;-80
2024/01/11 01:01:24;;;;;;;230.50;121.90;;;;;;;-7.41;88.21;101596.86;176020;1259;46109;-80
2024/01/11 01:05:27;;;;;;;206.60;104.40;;;;;;;-7.40;88.47;101597.39;175613;1262;46123;-80
2024/01/11 01:09:30;;;;;;;199.10;99.90;;;;;;;-7.53;87.92;101593.61;176644;1258;45068;-79
2024/01/11 01:13:34;;;;;;;218.60;108.30;;;;;;;-7.62;88.96;101584.54;177930;1258;45886;-80
2024/01/11 01:17:37;;;;;;;209.40;115.30;;;;;;;-7.51;88.87;101583.47;178761;1258;59245;-80
2024/01/11 01:21:40;;;;;;;244.20;132.80;;;;;;;-7.43;88.46;101582.73;179832;1258;44123;-79
2024/01/11 01:25:44;;;;;;;221.50;117.60;;;;;;;-7.36;87.93;101588.16;176982;1259;46021;-80
2024/01/11 01:29:47;;;;;;;226.50;122.00;;;;;;;-7.44;87.05;101579.24;176111;1259;46089;-80
2024/01/11 01:33:50;;;;;;;190.90;101.10;;;;;;;-7.57;87.89;101567.02;176619;1258;46095;-80
2024/01/11 01:37:54;;;;;;;173.60;96.80;;;;;;;-7.65;88.12;101580.52;176313;1259;58684;-80
2024/01/11 01:41:57;;;;;;;175.50;88.90;;;;;;;-7.72;87.71;101590.23;176148;1259;46138;-81
2024/01/11 01:46:00;;;;;;;225.80;105.50;;;;;;;-7.72;88.41;101582.66;176343;1259;45994;-81
2024/01/11 01:50:04;;;;;;;208.00;104.90;;;;;;;-7.57;88.82;101565.46;176140;1259;46660;-81
2024/01/11 01:54:08;;;;;;;189.70;104.80;;;;;;;-7.53;88.89;101558.45;176358;1258;46109;-79
2024/01/11 01:58:13;;;;;;;217.00;106.30;;;;;;;-7.45;88.98;101559.09;176053;1263;59468;-81
2024/01/11 02:02:16;;;;;;;164.60;92.40;;;;;;;-7.39;88.56;101565.02;176671;1259;47341;-80
2024/01/11 02:06:23;;;;;;;182.20;89.50;;;;;;;-7.48;88.62;101582.30;177273;1258;46238;-80
2024/01/11 02:10:28;;;;;;;175.30;87.30;;;;;;;-7.67;89.58;101601.68;176887;1259;46029;-81
2024/01/11 02:14:32;;;;;;;276.70;124.40;;;;;;;-7.77;90.79;101602.73;176128;1263;46056;-80
2024/01/11 02:18:35;;;;;;;202.70;101.10;;;;;;;-7.64;91.17;101591.40;176023;1259;59942;-80
2024/01/11 02:22:42;;;;;;;206.50;110.70;;;;;;;-7.46;90.73;101576.83;176637;1259;46218;-80
2024/01/11 02:26:59;;;;;;;225.10;110.00;;;;;;;-7.34;90.06;101574.73;176399;1259;46098;-80
2024/01/11 02:31:03;;;;;;;220.40;114.60;;;;;;;-7.49;89.64;101574.35;178493;1259;46123;-81
2024/01/11 02:35:07;;;;;;;176.90;89.20;;;;;;;-7.44;89.82;101569.09;176821;1258;46008;-81
2024/01/11 02:39:12;;;;;;;182.30;93.90;;;;;;;-7.42;89.64;101568.25;177545;1259;59523;-81
2024/01/11 02:43:15;;;;;;;179.40;91.00;;;;;;;-7.31;89.37;101558.58;176954;1259;47266;-81
2024/01/11 02:47:18;;;;;;;178.50;99.30;;;;;;;-7.17;88.64;101553.92;177020;1259;46118;-82
2024/01/11 02:51:21;;;;;;;193.20;107.40;;;;;;;-7.20;87.48;101554.05;178460;1258;46137;-82
2024/01/11 02:55:24;;;;;;;182.40;90.40;;;;;;;-7.28;87.50;101539.64;178009;1259;46046;-81
2024/01/11 02:59:28;;;;;;;183.20;97.00;;;;;;;-7.31;87.53;101538.40;177145;1262;60164;-82
2024/01/11 03:03:31;;;;;;;158.80;83.80;;;;;;;-7.36;87.53;101523.88;177214;1259;46059;-81
2024/01/11 03:07:34;;;;;;;176.60;88.50;;;;;;;-7.31;88.02;101519.44;177453;1258;46035;-80
2024/01/11 03:11:38;;;;;;;148.60;71.00;;;;;;;-7.22;87.64;101512.48;176717;1259;46049;-81
2024/01/11 03:15:41;;;;;;;175.10;90.40;;;;;;;-7.33;86.97;101521.84;177435;1259;45995;-81
2024/01/11 03:19:44;;;;;;;193.70;100.40;;;;;;;-7.42;87.52;101517.23;176910;1259;59082;-81
2024/01/11 03:23:47;;;;;;;189.60;101.70;;;;;;;-7.48;87.82;101508.04;176275;1259;46108;-81
2024/01/11 03:27:50;;;;;;;183.40;93.60;;;;;;;-7.45;88.45;101497.73;176243;1259;45970;-80
2024/01/11 03:31:53;;;;;;;163.90;82.60;;;;;;;-7.35;88.56;101500.95;176294;1259;46030;-81
2024/01/11 03:35:56;;;;;;;144.80;78.70;;;;;;;-7.44;88.23;101518.94;176808;1259;46115;-79
2024/01/11 03:40:01;;;;;;;587.60;301.80;;;;;;;-7.44;88.49;101519.27;176227;1261;59224;-79
2024/01/11 03:44:05;;;;;;;190.30;100.80;;;;;;;-7.28;89.07;101511.38;177082;1259;45995;-81
2024/01/11 03:48:08;;;;;;;197.40;91.30;;;;;;;-7.14;88.39;101516.02;177554;1261;46182;-81
2024/01/11 03:52:11;;;;;;;265.90;114.90;;;;;;;-7.20;87.76;101516.46;177760;1259;46150;-81
2024/01/11 03:56:14;;;;;;;441.70;209.70;;;;;;;-7.31;87.93;101521.85;176789;1259;46294;-81
2024/01/11 04:00:17;;;;;;;199.60;103.40;;;;;;;-7.42;88.29;101528.77;176690;1259;57943;-81
2024/01/11 04:04:21;;;;;;;173.50;90.20;;;;;;;-7.40;88.52;101528.98;177215;1261;46025;-81
2024/01/11 04:08:24;;;;;;;172.30;94.00;;;;;;;-7.28;88.86;101529.13;177545;1263;46141;-80
2024/01/11 04:12:27;;;;;;;150.60;77.40;;;;;;;-7.13;88.17;101528.45;177409;1259;46065;-81
2024/01/11 04:16:30;;;;;;;163.20;86.50;;;;;;;-7.12;87.89;101526.20;179615;1259;44188;-81
2024/01/11 04:20:34;;;;;;;182.00;91.70;;;;;;;-7.07;88.24;101519.19;177054;1259;58046;-81
2024/01/11 04:24:37;;;;;;;169.20;81.20;;;;;;;-6.96;88.26;101514.83;177281;1263;46243;-81
2024/01/11 04:28:41;;;;;;;155.70;79.80;;;;;;;-6.99;87.37;101502.72;177458;1259;46050;-81
2024/01/11 04:32:44;;;;;;;147.60;76.90;;;;;;;-7.13;87.75;101514.45;177269;1259;46153;-80
2024/01/11 04:36:47;;;;;;;151.70;76.50;;;;;;;-7.12;88.60;101510.84;177303;1259;46173;-81
2024/01/11 04:40:50;;;;;;;131.70;64.60;;;;;;;-7.13;88.93;101524.48;177048;1259;57793;-80
2024/01/11 04:44:54;;;;;;;141.00;63.90;;;;;;;-7.15;89.66;101513.41;177210;1259;46113;-80
2024/01/11 04:48:57;;;;;;;133.90;77.00;;;;;;;-7.14;91.00;101507.05;176546;1259;45905;-81
2024/01/11 04:53:01;;;;;;;148.80;75.60;;;;;;;-7.00;90.85;101507.88;176647;1259;45240;-81
2024/01/11 04:57:05;;;;;;;147.90;70.80;;;;;;;-7.02;91.34;101517.52;176339;1259;45995;-81
2024/01/11 05:01:16;;;;;;;140.40;66.60;;;;;;;-7.05;91.99;101521.98;177196;1263;57988;-81
2024/01/11 05:05:19;;;;;;;141.10;63.10;;;;;;;-6.93;93.82;101503.98;176818;1259;46116;-82
2024/01/11 05:09:23;;;;;;;120.20;62.80;;;;;;;-6.75;95.40;101492.42;176866;1259;46219;-81
2024/01/11 05:13:26;;;;;;;109.20;62.80;;;;;;;-6.41;95.83;101474.07;176633;1258;177333;-82
2024/01/11 05:17:29;;;;;;;133.00;74.20;;;;;;;-5.99;95.71;101466.38;176949;1259;46092;-83
2024/01/11 05:21:32;;;;;;;139.40;68.80;;;;;;;-5.62;95.24;101453.60;177083;1263;57663;-83
2024/01/11 05:25:35;;;;;;;83.40;39.30;;;;;;;-5.35;95.14;101454.55;177658;1258;46094;-82
2024/01/11 05:29:38;;;;;;;105.10;47.60;;;;;;;-5.20;94.45;101454.07;177520;1263;46117;-82
2024/01/11 05:33:42;;;;;;;106.30;51.00;;;;;;;-5.16;92.51;101447.50;177739;1259;46138;-81
2024/01/11 05:37:45;;;;;;;105.10;63.90;;;;;;;-4.94;92.18;101424.70;176826;1259;46118;-81
2024/01/11 05:41:48;;;;;;;117.80;65.70;;;;;;;-4.89;89.79;101415.20;176902;1259;59303;-81
2024/01/11 05:45:51;;;;;;;125.30;68.60;;;;;;;-4.88;89.09;101398.06;177074;1259;45995;-81
2024/01/11 05:49:55;;;;;;;87.30;54.80;;;;;;;-4.85;89.74;101395.80;177314;1259;46008;-82
2024/01/11 05:53:58;;;;;;;77.10;42.70;;;;;;;-4.78;91.27;101384.90;176955;1263;46246;-82
2024/01/11 05:58:01;;;;;;;52.20;28.50;;;;;;;-4.60;92.95;101384.20;177262;1263;46265;-82
2024/01/11 06:02:04;;;;;;;72.30;38.00;;;;;;;-4.42;92.26;101419.65;176920;1259;59363;-81
2024/01/11 06:06:08;;;;;;;192.90;90.50;;;;;;;-4.20;92.94;101411.48;177285;1259;45978;-82
2024/01/11 06:10:13;;;;;;;153.40;81.40;;;;;;;-4.13;89.81;101415.79;177080;1263;45875;-82
2024/01/11 06:14:16;;;;;;;108.70;56.90;;;;;;;-4.12;89.32;101409.21;177221;1259;46109;-80
2024/01/11 06:18:19;;;;;;;105.30;55.60;;;;;;;-4.18;88.62;101381.16;177192;1259;46031;-81
2024/01/11 06:22:22;;;;;;;114.40;62.90;;;;;;;-4.29;87.71;101366.47;177300;1259;59568;-82
2024/01/11 06:26:25;;;;;;;97.00;52.80;;;;;;;-4.44;88.37;101390.59;176676;1259;46133;-81
2024/01/11 06:30:28;;;;;;;102.20;47.80;;;;;;;-4.55;89.63;101390.93;177108;1259;46000;-81
2024/01/11 06:34:31;;;;;;;85.10;45.10;;;;;;;-4.66;89.29;101382.65;177626;1259;45265;-82
2024/01/11 06:38:35;;;;;;;80.40;39.60;;;;;;;-4.63;88.92;101385.75;177394;1259;46198;-83
2024/01/11 06:42:38;;;;;;;77.70;41.90;;;;;;;-4.55;89.08;101388.85;177277;1259;59617;-82
2024/01/11 06:46:41;;;;;;;62.40;29.90;;;;;;;-4.42;90.12;101388.49;177039;1259;46038;-82
2024/01/11 06:50:45;;;;;;;53.20;30.70;;;;;;;-4.31;91.33;101386.21;177139;1262;46126;-82
2024/01/11 06:54:49;;;;;;;70.90;31.60;;;;;;;-4.19;91.55;101386.35;177112;1259;46040;-82
2024/01/11 06:58:52;;;;;;;45.50;27.10;;;;;;;-4.08;90.25;101395.50;177193;1259;45085;-82
2024/01/11 07:02:55;;;;;;;33.70;19.70;;;;;;;-3.86;89.17;101399.95;177492;1259;58317;-82
2024/01/11 07:06:58;;;;;;;41.60;24.40;;;;;;;-3.74;88.18;101408.58;177285;1259;46109;-82
2024/01/11 07:11:02;;;;;;;49.80;25.60;;;;;;;-3.60;88.44;101390.45;177438;1260;46123;-82
2024/01/11 07:15:07;;;;;;;54.20;25.20;;;;;;;-3.49;88.31;101367.17;177198;1259;46091;-81
2024/01/11 07:19:11;;;;;;;131.20;62.50;;;;;;;-3.46;88.01;101364.89;177308;1263;46017;-81
2024/01/11 07:23:15;;;;;;;77.20;36.30;;;;;;;-3.43;86.59;101372.84;177337;1259;59502;-84
2024/01/11 07:27:18;;;;;;;124.40;49.60;;;;;;;-3.36;86.32;101362.91;177506;1260;46015;-82
2024/01/11 07:31:21;;;;;;;55.20;31.00;;;;;;;-3.37;86.08;101347.14;177106;1259;45994;-82
2024/01/11 07:35:25;;;;;;;58.00;31.30;;;;;;;-3.37;86.47;101348.52;177317;1263;46042;-82
2024/01/11 07:39:29;;;;;;;52.80;27.00;;;;;;;-3.37;86.93;101344.88;176944;1259;46265;-82
2024/01/11 07:43:35;;;;;;;31.20;20.90;;;;;;;-3.40;87.51;101336.73;177041;1259;58203;-82
2024/01/11 07:47:55;;;;;;;59.50;28.20;;;;;;;-3.44;87.58;101341.63;177107;1262;46214;-81
2024/01/11 07:51:58;;;;;;;52.60;21.60;;;;;;;-3.38;87.15;101346.27;176919;1263;46129;-82
2024/01/11 07:56:01;;;;;;;45.60;21.90;;;;;;;-3.33;88.49;101323.52;177059;1259;46223;-82
2024/01/11 08:00:08;;;;;;;37.00;20.00;;;;;;;-3.27;89.40;101307.50;176913;1259;46004;-82
2024/01/11 08:04:12;;;;;;;49.10;27.20;;;;;;;-3.27;90.00;101310.98;176882;1260;59666;-84
2024/01/11 08:08:15;;;;;;;36.00;19.00;;;;;;;-3.17;90.54;101306.73;177419;1259;45968;-85
2024/01/11 08:12:18;;;;;;;32.10;18.00;;;;;;;-3.14;90.06;101325.29;176973;1262;46050;-81
2024/01/11 08:16:21;;;;;;;43.80;28.50;;;;;;;-3.01;90.43;101327.26;177904;1259;45962;-82
2024/01/11 08:20:24;;;;;;;40.40;23.50;;;;;;;-2.71;89.99;101338.61;176788;1263;46224;-82
2024/01/11 08:24:28;;;;;;;43.40;22.70;;;;;;;-2.44;88.03;101334.86;176999;1259;58291;-82
2024/01/11 08:28:32;;;;;;;44.20;27.10;;;;;;;-2.39;86.73;101324.55;176807;1259;46011;-82
2024/01/11 08:32:39;;;;;;;45.60;27.50;;;;;;;-2.35;87.52;101327.12;176942;1259;46075;-82
2024/01/11 08:36:43;;;;;;;54.50;29.60;;;;;;;-2.32;86.85;101332.65;177036;1259;46003;-82
2024/01/11 08:40:46;;;;;;;53.80;24.20;;;;;;;-2.32;87.44;101334.05;176955;1259;46006;-82
2024/01/11 08:44:49;;;;;;;53.70;29.90;;;;;;;-2.33;88.27;101326.40;177152;1263;57953;-82
2024/01/11 08:48:54;;;;;;;46.80;29.40;;;;;;;-2.14;88.37;101301.16;176888;1263;46021;-82
2024/01/11 08:52:57;;;;;;;39.20;25.20;;;;;;;-1.98;87.42;101289.47;177004;1259;46107;-82
2024/01/11 08:57:01;;;;;;;31.10;20.40;;;;;;;-1.86;86.76;101300.96;176729;1260;46234;-82
2024/01/11 09:01:04;;;;;;;37.50;19.30;;;;;;;-1.89;85.63;101312.99;176908;1261;46027;-82
2024/01/11 09:05:07;;;;;;;30.70;18.20;;;;;;;-1.88;83.06;101313.69;176832;1260;58570;-82
2024/01/11 09:09:13;;;;;;;56.60;25.50;;;;;;;-1.80;81.06;101323.30;177464;1265;46094;-81
2024/01/11 09:13:16;;;;;;;51.70;22.10;;;;;;;-1.69;79.43;101326.12;177189;1263;46383;-81
2024/01/11 09:17:19;;;;;;;45.90;21.60;;;;;;;-1.72;79.89;101315.20;177228;1263;45991;-81
2024/01/11 09:21:22;;;;;;;33.00;20.10;;;;;;;-1.76;80.04;101320.47;177057;1261;45968;-81
2024/01/11 09:25:25;;;;;;;35.70;20.00;;;;;;;-1.61;80.49;101315.92;176814;1261;59265;-82
2024/01/11 09:29:28;;;;;;;33.40;19.30;;;;;;;-1.55;79.55;101313.05;176529;1260;46125;-83
2024/01/11 09:33:32;;;;;;;41.80;18.60;;;;;;;-1.48;78.76;101314.52;176972;1260;45977;-81
2024/01/11 09:37:35;;;;;;;36.90;21.70;;;;;;;-1.37;80.49;101321.13;176790;1264;46233;-82
2024/01/11 09:41:48;;;;;;;45.10;21.30;;;;;;;-1.32;78.93;101316.52;176699;1266;46036;-82
2024/01/11 09:45:53;;;;;;;53.30;22.40;;;;;;;-1.32;79.30;101315.66;177730;1263;60183;-81
2024/01/11 09:49:59;;;;;;;37.10;20.50;;;;;;;-1.37;77.95;101309.81;176943;1263;46136;-80
2024/01/11 09:54:03;;;;;;;40.10;22.20;;;;;;;-1.31;77.94;101316.34;177542;1263;45996;-81
2024/01/11 09:58:07;;;;;;;45.30;22.40;;;;;;;-1.26;78.13;101310.87;177258;1260;46110;-82
2024/01/11 10:02:11;;;;;;;36.80;20.50;;;;;;;-1.25;76.73;101301.81;177142;1260;46136;-81
2024/01/11 10:06:17;;;;;;;64.90;24.10;;;;;;;-1.26;74.91;101299.73;177100;1263;59232;-82
2024/01/11 10:10:20;;;;;;;54.80;20.20;;;;;;;-1.26;75.55;101289.10;177308;1261;46035;-82
2024/01/11 10:14:24;;;;;;;35.50;21.00;;;;;;;-1.22;75.29;101275.81;176934;1261;44604;-82
2024/01/11 10:18:27;;;;;;;33.70;19.50;;;;;;;-1.26;74.10;101280.59;177684;1260;46099;-82
2024/01/11 10:22:30;;;;;;;41.20;18.30;;;;;;;-1.16;74.31;101261.27;177317;1261;45995;-82
2024/01/11 10:26:34;;;;;;;35.40;23.70;;;;;;;-1.01;73.79;101263.09;176805;1263;57917;-82
2024/01/11 10:30:38;;;;;;;40.10;22.00;;;;;;;-0.99;73.00;101260.63;176734;1264;46111;-81
2024/01/11 10:34:42;;;;;;;32.70;19.70;;;;;;;-0.95;72.44;101262.99;177033;1260;46138;-81
2024/01/11 10:38:47;;;;;;;34.30;22.00;;;;;;;-0.85;74.88;101261.77;176991;1260;45994;-81
2024/01/11 10:42:52;;;;;;;41.20;22.20;;;;;;;-0.79;74.10;101262.00;177145;1259;46037;-82
2024/01/11 10:46:56;;;;;;;44.00;26.80;;;;;;;-0.73;73.15;101269.39;176778;1259;58412;-81
2024/01/11 10:51:02;;;;;;;53.90;26.90;;;;;;;-0.62;71.40;101263.59;177074;1261;45895;-81
2024/01/11 10:55:05;;;;;;;43.60;23.70;;;;;;;-0.61;69.07;101272.45;176830;1261;46221;-81
2024/01/11 10:59:11;;;;;;;45.80;22.80;;;;;;;-0.59;68.00;101264.23;176648;1261;46102;-81
2024/01/11 11:03:15;;;;;;;40.60;23.00;;;;;;;-0.63;69.39;101271.80;176502;1259;46011;-81
2024/01/11 11:07:20;;;;;;;45.10;25.80;;;;;;;-0.60;71.18;101273.48;176810;1260;60090;-81
2024/01/11 11:11:23;;;;;;;43.70;22.20;;;;;;;-0.66;70.34;101265.41;176800;1259;46041;-81
2024/01/11 11:15:28;;;;;;;53.40;27.10;;;;;;;-0.68;68.70;101253.59;176661;1262;46047;-82
2024/01/11 11:19:31;;;;;;;51.70;27.70;;;;;;;-0.81;69.44;101230.34;176477;1260;46126;-81
2024/01/11 11:23:35;;;;;;;104.60;35.00;;;;;;;-0.95;70.52;101221.73;176677;1259;47854;-81
2024/01/11 11:27:38;;;;;;;63.50;28.80;;;;;;;-1.00;71.07;101214.68;176948;1261;59625;-82
2024/01/11 11:31:47;;;;;;;47.60;28.10;;;;;;;-1.04;73.28;101215.98;176860;1260;46116;-82
2024/01/11 11:35:57;;;;;;;47.50;24.30;;;;;;;-0.99;72.79;101217.27;177073;1262;46354;-83
2024/01/11 11:40:00;;;;;;;52.80;22.50;;;;;;;-0.94;72.55;101217.34;177312;1260;45241;-82
2024/01/11 11:44:05;;;;;;;44.40;22.20;;;;;;;-0.93;72.80;101205.67;176829;1266;45998;-81
2024/01/11 11:48:38;;;;;;;45.30;26.50;;;;;;;-0.85;72.16;101208.64;176575;1265;57242;-82
2024/01/11 11:52:42;;;;;;;48.30;26.90;;;;;;;-0.87;73.55;101204.49;176818;1265;46103;-81
2024/01/11 11:56:46;;;;;;;35.60;25.20;;;;;;;-0.88;71.95;101205.55;176883;1260;46132;-82
2024/01/11 12:00:49;;;;;;;41.80;22.80;;;;;;;-0.88;70.41;101220.35;177015;1260;46035;-82
2024/01/11 12:04:54;;;;;;;56.20;30.30;;;;;;;-0.88;69.35;101229.94;176477;1261;46143;-82
2024/01/11 12:08:58;;;;;;;55.00;29.00;;;;;;;-0.85;69.04;101237.55;176308;1266;58035;-82
2024/01/11 12:13:01;;;;;;;52.40;26.30;;;;;;;-0.78;69.44;101241.77;176604;1260;46107;-82
2024/01/11 12:17:06;;;;;;;69.40;34.60;;;;;;;-0.75;70.16;101230.58;177103;1260;46005;-82
2024/01/11 12:21:09;;;;;;;64.60;39.00;;;;;;;-0.73;70.22;101229.14;176665;1265;46211;-82
2024/01/11 12:25:12;;;;;;;62.70;32.10;;;;;;;-0.66;70.73;101213.50;176771;1261;46126;-82
2024/01/11 12:29:18;;;;;;;45.30;26.10;;;;;;;-0.63;70.67;101204.73;176937;1262;60007;-83
2024/01/11 12:33:22;;;;;;;46.10;25.60;;;;;;;-0.71;69.39;101201.58;177110;1263;46119;-83
2024/01/11 12:37:26;;;;;;;40.90;23.50;;;;;;;-0.77;69.51;101191.23;176806;1259;46107;-83
2024/01/11 12:41:30;;;;;;;45.20;26.40;;;;;;;-0.87;69.15;101190.58;176727;1258;46128;-81
2024/01/11 12:45:34;;;;;;;45.60;26.90;;;;;;;-0.95;69.53;101206.05;177194;1260;46122;-83
2024/01/11 12:49:45;;;;;;;37.30;21.60;;;;;;;-1.09;69.66;101212.75;176731;1259;57182;-82
2024/01/11 12:53:49;;;;;;;53.40;27.10;;;;;;;-1.17;70.74;101218.48;176715;1260;46159;-83
2024/01/11 12:58:04;;;;;;;55.30;29.00;;;;;;;-1.23;71.22;101217.16;177014;1260;46469;-82
2024/01/11 13:02:07;;;;;;;47.90;24.20;;;;;;;-1.32;71.21;101227.25;176878;1259;46062;-82
2024/01/11 13:06:11;;;;;;;44.60;29.00;;;;;;;-1.40;71.49;101222.67;176763;1258;46035;-82
2024/01/11 13:10:16;;;;;;;45.40;28.70;;;;;;;-1.39;72.05;101223.01;176724;1263;57967;-82
2024/01/11 13:14:20;;;;;;;60.90;32.00;;;;;;;-1.47;71.94;101226.62;176636;1259;46125;-83
2024/01/11 13:18:23;;;;;;;60.10;36.50;;;;;;;-1.46;71.54;101230.95;176875;1259;46168;-82
2024/01/11 13:22:27;;;;;;;59.40;32.30;;;;;;;-1.42;72.50;101225.34;177246;1259;46006;-83
2024/01/11 13:26:30;;;;;;;52.80;27.30;;;;;;;-1.37;74.09;101215.65;177059;1260;48606;-83
2024/01/11 13:30:33;;;;;;;63.90;39.00;;;;;;;-1.25;73.71;101215.30;176741;1261;59799;-82
2024/01/11 13:34:39;;;;;;;53.10;30.00;;;;;;;-1.16;74.16;101227.85;176714;1259;46104;-83
2024/01/11 13:38:42;;;;;;;53.20;27.10;;;;;;;-1.16;74.71;101241.60;176966;1259;46149;-83
2024/01/11 13:42:45;;;;;;;45.60;27.30;;;;;;;-1.25;74.02;101248.54;176915;1259;46055;-82
2024/01/11 13:46:49;;;;;;;49.30;23.50;;;;;;;-1.33;75.67;101254.42;176754;1263;46396;-83
2024/01/11 13:50:52;;;;;;;52.20;29.00;;;;;;;-1.38;76.43;101247.70;176808;1259;58206;-83
2024/01/11 13:54:55;;;;;;;56.60;33.60;;;;;;;-1.46;76.79;101251.31;178494;1258;45253;-82
2024/01/11 13:58:59;;;;;;;43.60;26.50;;;;;;;-1.43;77.04;101249.88;177292;1259;46124;-83
2024/01/11 14:03:04;;;;;;;53.00;28.00;;;;;;;-1.59;80.00;101247.88;177464;1260;45998;-84
2024/01/11 14:07:10;;;;;;;57.50;28.20;;;;;;;-1.61;83.93;101245.29;178008;1259;46582;-84
2024/01/11 14:11:13;;;;;;;66.00;31.20;;;;;;;-1.66;84.66;101246.23;177418;1259;58211;-84
2024/01/11 14:15:17;;;;;;;51.90;27.60;;;;;;;-1.60;85.61;101249.27;176858;1259;46232;-83
2024/01/11 14:19:20;;;;;;;55.80;27.30;;;;;;;-1.67;85.35;101240.34;177629;1259;45977;-85
2024/01/11 14:23:24;;;;;;;150.20;73.50;;;;;;;-1.72;84.59;101236.95;177367;1259;46126;-85
2024/01/11 14:27:28;;;;;;;120.70;58.20;;;;;;;-1.75;85.03;101244.27;177411;1259;44077;-84
2024/01/11 14:31:31;;;;;;;109.70;58.30;;;;;;;-1.76;84.72;101256.83;177318;1259;57943;-83
2024/01/11 14:35:35;;;;;;;68.40;42.80;;;;;;;-1.67;83.90;101255.12;177293;1259;46142;-85
2024/01/11 14:39:39;;;;;;;69.30;39.40;;;;;;;-1.64;83.83;101256.29;177003;1259;46131;-85
2024/01/11 14:43:42;;;;;;;59.10;37.20;;;;;;;-1.57;84.58;101262.96;176847;1262;46035;-84
2024/01/11 14:47:46;;;;;;;64.60;36.50;;;;;;;-1.55;84.20;101264.67;177058;1259;44754;-84
2024/01/11 14:51:49;;;;;;;66.20;37.60;;;;;;;-1.61;84.51;101278.00;176954;1258;58198;-85
2024/01/11 14:55:53;;;;;;;72.10;39.10;;;;;;;-1.70;83.49;101281.95;177240;1259;46098;-84
2024/01/11 14:59:56;;;;;;;81.10;41.80;;;;;;;-1.78;83.97;101295.30;177119;1262;46215;-83
2024/01/11 15:03:59;;;;;;;67.90;39.00;;;;;;;-1.80;84.50;101309.23;177237;1259;44455;-84
2024/01/11 15:08:03;;;;;;;53.60;32.50;;;;;;;-1.86;84.49;101314.70;176911;1258;46162;-85
2024/01/11 15:12:07;;;;;;;80.90;31.10;;;;;;;-1.88;84.93;101311.59;177337;1259;58908;-81
2024/01/11 15:16:10;;;;;;;59.60;38.00;;;;;;;-1.86;85.82;101308.61;177367;1259;46165;-85
2024/01/11 15:20:13;;;;;;;58.00;31.40;;;;;;;-1.88;85.93;101304.12;177037;1258;46020;-85
2024/01/11 15:24:18;;;;;;;65.70;35.60;;;;;;;-1.93;86.63;101316.20;176942;1258;46002;-86
2024/01/11 15:28:23;;;;;;;63.60;34.50;;;;;;;-1.93;86.83;101323.67;176815;1259;46234;-88
2024/01/11 15:32:26;;;;;;;65.80;39.40;;;;;;;-1.92;87.43;101326.77;177022;1258;58069;-86
2024/01/11 15:36:29;;;;;;;77.20;45.90;;;;;;;-1.92;87.40;101335.46;176753;1259;45850;-87
2024/01/11 15:40:33;;;;;;;50.40;32.50;;;;;;;-1.85;88.39;101340.77;177131;1258;45965;-86
2024/01/11 15:44:38;;;;;;;55.60;34.00;;;;;;;-1.88;90.97;101348.46;176991;1258;46124;-84
2024/01/11 15:48:43;;;;;;;54.00;30.40;;;;;;;-1.82;92.31;101343.52;177386;1259;46085;-86
2024/01/11 15:52:46;;;;;;;48.50;28.80;;;;;;;-1.87;93.78;101339.05;177273;1258;58062;-84
2024/01/11 15:56:50;;;;;;;47.80;24.80;;;;;;;-1.91;97.94;101340.85;177122;1259;46117;-84
2024/01/11 16:00:54;;;;;;;39.40;24.20;;;;;;;-2.03;100.00;101336.13;177361;1258;46199;-83
2024/01/11 16:04:57;;;;;;;31.30;19.40;;;;;;;-2.06;100.00;101338.24;176988;1259;46108;-84
2024/01/11 16:09:00;;;;;;;37.60;19.30;;;;;;;-2.07;100.00;101338.61;177424;1258;46157;-86
2024/01/11 16:13:03;;;;;;;43.50;28.80;;;;;;;-2.12;100.00;101339.89;177015;1259;58047;-85
2024/01/11 16:17:07;;;;;;;44.50;23.70;;;;;;;-2.12;100.00;101349.45;176892;1259;46085;-84
2024/01/11 16:21:10;;;;;;;61.10;25.50;;;;;;;-2.10;100.00;101350.99;176714;1260;46102;-85
2024/01/11 16:25:14;;;;;;;54.00;30.40;;;;;;;-2.11;100.00;101361.78;176865;1259;46177;-86
2024/01/11 16:29:17;;;;;;;39.40;26.60;;;;;;;-2.10;100.00;101370.63;176807;1259;46275;-84
2024/01/11 16:33:20;;;;;;;46.80;26.30;;;;;;;-2.13;100.00;101375.36;176763;1259;57987;-85
2024/01/11 16:37:23;;;;;;;44.40;25.20;;;;;;;-2.17;100.00;101377.14;177048;1259;46025;-85
2024/01/11 16:41:27;;;;;;;60.10;33.90;;;;;;;-2.13;100.00;101369.80;176894;1258;46011;-84
2024/01/11 16:45:36;;;;;;;50.30;29.70;;;;;;;-2.15;100.00;101362.69;176585;1263;46034;-84
2024/01/11 16:49:43;;;;;;;48.20;28.00;;;;;;;-2.26;100.00;101359.85;176911;1259;46111;-85
2024/01/11 16:53:46;;;;;;;57.40;30.10;;;;;;;-2.44;100.00;101356.93;176560;1258;59667;-84
2024/01/11 16:57:50;;;;;;;46.40;27.00;;;;;;;-2.44;100.00;101356.75;176574;1259;46050;-84
2024/01/11 17:01:53;;;;;;;44.70;24.40;;;;;;;-2.44;100.00;101367.88;176563;1258;45995;-86
2024/01/11 17:05:56;;;;;;;44.40;24.80;;;;;;;-2.32;100.00;101375.92;176818;1258;46078;-82
2024/01/11 17:10:00;;;;;;;42.20;27.20;;;;;;;-2.36;100.00;101370.39;177022;1259;46117;-84
2024/01/11 17:14:03;;;;;;;55.10;29.70;;;;;;;-2.37;100.00;101376.65;176775;1258;187124;-85
2024/01/11 17:18:07;;;;;;;65.50;31.60;;;;;;;-2.36;100.00;101371.09;177027;1263;46221;-85
2024/01/11 17:22:10;;;;;;;38.80;24.30;;;;;;;-2.37;100.00;101362.92;176828;1258;46107;-85
2024/01/11 17:26:13;;;;;;;47.20;27.30;;;;;;;-2.34;100.00;101367.60;176921;1258;44712;-86
2024/01/11 17:30:17;;;;;;;50.80;30.40;;;;;;;-2.34;100.00;101361.00;177906;1258;45997;-84
2024/01/11 17:34:21;;;;;;;55.00;31.70;;;;;;;-2.25;100.00;101353.25;177675;1259;57601;-86
2024/01/11 17:38:24;;;;;;;61.00;35.30;;;;;;;-2.19;100.00;101355.63;177471;1259;46124;-87
2024/01/11 17:42:27;;;;;;;65.60;32.90;;;;;;;-2.18;100.00;101358.02;177058;1259;46212;-85
2024/01/11 17:46:30;;;;;;;55.40;32.30;;;;;;;-2.20;100.00;101349.71;176788;1259;46066;-86
2024/01/11 17:50:33;;;;;;;51.20;29.90;;;;;;;-2.11;100.00;101346.48;177011;1259;46136;-86
2024/01/11 17:54:38;;;;;;;45.50;28.10;;;;;;;-2.04;100.00;101343.78;177005;1261;59531;-85
2024/01/11 17:58:42;;;;;;;44.30;26.90;;;;;;;-2.02;100.00;101343.92;176987;1258;46109;-86
2024/01/11 18:02:45;;;;;;;59.80;35.30;;;;;;;-1.96;100.00;101336.73;177067;1258;46120;-87
2024/01/11 18:06:48;;;;;;;51.00;30.30;;;;;;;-1.93;100.00;101337.73;176940;1259;46117;-84